Time;durP1;ratioP1;P1;durP2;ratioP2;P2;SDS_P1;SDS_P2;PMS_P1;PMS_P2;Temp;Humidity;BMP_temperature;BMP_pressure;BME280_temperature;BME280_humidity;BME280_pressure;Samples;Min_cycle;Max_cycle;Signal;HPM_P1;HPM_P2
2020/12/27 00:00:31;;;;;;;;;;;6.20;78.40;;;;;;4753028;30;20009;-83
2020/12/27 00:02:57;;;;;;;;;;;6.30;78.50;;;;;;4752695;30;19918;-83
2020/12/27 00:05:22;;;;;;;;;;;6.30;78.50;;;;;;4753178;30;20426;-83
2020/12/27 00:07:48;;;;;;;;;;;6.30;78.50;;;;;;4737667;30;19929;-82
2020/12/27 00:10:13;;;;;;;;;;;6.30;78.20;;;;;;4752852;30;19921;-83
2020/12/27 00:12:39;;;;;;;;;;;6.30;78.20;;;;;;4738183;30;20357;-83
2020/12/27 00:15:05;;;;;;;;;;;6.30;78.30;;;;;;4768563;30;20020;-82
2020/12/27 00:17:30;;;;;;;;;;;6.20;78.20;;;;;;4768910;30;19951;-82
2020/12/27 00:19:57;;;;;;;;;;;6.30;78.20;;;;;;4768644;30;19960;-82
2020/12/27 00:22:23;;;;;;;;;;;6.20;78.10;;;;;;4768856;30;19913;-83
2020/12/27 00:24:49;;;;;;;;;;;6.20;78.00;;;;;;4752560;30;19926;-83
2020/12/27 00:27:14;;;;;;;;;;;6.20;78.00;;;;;;4752648;30;20349;-83
2020/12/27 00:29:40;;;;;;;;;;;6.20;77.90;;;;;;4738154;30;19918;-83
2020/12/27 00:32:06;;;;;;;;;;;6.20;78.00;;;;;;4768373;30;19977;-82
2020/12/27 00:34:31;;;;;;;;;;;6.20;77.90;;;;;;4752949;30;19921;-83
2020/12/27 00:36:57;;;;;;;;;;;6.20;77.80;;;;;;4752307;30;19922;-82
2020/12/27 00:39:23;;;;;;;;;;;6.20;77.90;;;;;;4752524;30;20324;-83
2020/12/27 00:41:49;;;;;;;;;;;6.20;77.90;;;;;;4752317;30;20365;-83
2020/12/27 00:44:15;;;;;;;;;;;6.20;77.80;;;;;;4752544;30;19924;-83
2020/12/27 00:46:41;;;;;;;;;;;6.20;77.80;;;;;;4768623;30;19924;-83
2020/12/27 00:49:06;;;;;;;;;;;6.30;77.90;;;;;;4768142;30;19926;-82
2020/12/27 00:51:32;;;;;;;;;;;6.30;77.70;;;;;;4753808;30;19918;-83
2020/12/27 00:53:58;;;;;;;;;;;6.30;77.80;;;;;;4771397;30;19983;-83
2020/12/27 00:56:23;;;;;;;;;;;6.20;77.50;;;;;;4755787;30;19922;-82
2020/12/27 00:58:49;;;;;;;;;;;6.20;77.60;;;;;;4755534;30;19921;-83
2020/12/27 01:01:15;;;;;;;;;;;6.20;77.70;;;;;;4755761;30;20361;-83
2020/12/27 01:03:44;;;;;;;;;;;6.20;77.60;;;;;;4772063;30;19960;-83
2020/12/27 01:06:10;;;;;;;;;;;6.10;77.50;;;;;;4771671;30;19914;-83
2020/12/27 01:08:36;;;;;;;;;;;6.10;77.70;;;;;;4771706;30;20435;-83
2020/12/27 01:11:02;;;;;;;;;;;6.10;77.50;;;;;;4771449;30;20414;-83
2020/12/27 01:13:28;;;;;;;;;;;6.10;77.70;;;;;;4755743;30;19964;-83
2020/12/27 01:15:54;;;;;;;;;;;6.10;77.70;;;;;;4755242;30;19922;-83
2020/12/27 01:18:19;;;;;;;;;;;6.10;77.90;;;;;;4755632;30;20293;-83
2020/12/27 01:20:45;;;;;;;;;;;6.10;77.80;;;;;;4740618;30;19928;-83
2020/12/27 01:23:10;;;;;;;;;;;6.10;77.90;;;;;;4755635;30;19922;-83
2020/12/27 01:25:36;;;;;;;;;;;6.10;77.90;;;;;;4740896;30;19930;-83
2020/12/27 01:28:02;;;;;;;;;;;6.10;77.90;;;;;;4754926;30;19965;-83
2020/12/27 01:30:27;;;;;;;;;;;6.10;78.00;;;;;;4771463;30;19922;-83
2020/12/27 01:32:53;;;;;;;;;;;6.10;78.00;;;;;;4755069;30;19914;-83
2020/12/27 01:35:18;;;;;;;;;;;6.10;78.00;;;;;;4755286;30;19922;-83
2020/12/27 01:37:44;;;;;;;;;;;6.10;78.20;;;;;;4771154;30;19997;-83
2020/12/27 01:40:09;;;;;;;;;;;6.00;78.10;;;;;;4740268;30;19926;-83
2020/12/27 01:42:35;;;;;;;;;;;6.10;78.10;;;;;;4755187;30;19914;-83
2020/12/27 01:45:01;;;;;;;;;;;6.00;78.20;;;;;;4754862;30;19914;-83
2020/12/27 01:47:28;;;;;;;;;;;6.00;78.20;;;;;;4755083;30;20021;-83
2020/12/27 01:49:53;;;;;;;;;;;6.00;78.20;;;;;;4754785;30;19918;-83
2020/12/27 01:52:19;;;;;;;;;;;6.00;78.30;;;;;;4755199;30;20426;-83
2020/12/27 01:54:45;;;;;;;;;;;6.00;78.20;;;;;;4754879;30;19930;-83
2020/12/27 01:57:12;;;;;;;;;;;6.00;78.20;;;;;;4770612;30;20372;-83
2020/12/27 01:59:38;;;;;;;;;;;6.10;78.40;;;;;;4754843;30;19998;-83
2020/12/27 02:02:03;;;;;;;;;;;6.10;78.40;;;;;;4754312;30;19922;-83
2020/12/27 02:04:30;;;;;;;;;;;6.10;78.30;;;;;;4770761;30;19996;-83
2020/12/27 02:06:56;;;;;;;;;;;6.10;78.30;;;;;;4739762;30;19925;-83
2020/12/27 02:09:21;;;;;;;;;;;6.10;78.30;;;;;;4738002;30;19922;-84
2020/12/27 02:11:47;;;;;;;;;;;6.10;78.20;;;;;;4739918;30;20281;-83
2020/12/27 02:14:13;;;;;;;;;;;6.10;78.20;;;;;;4740095;30;19925;-83
2020/12/27 02:16:39;;;;;;;;;;;6.10;78.20;;;;;;4754766;30;19925;-84
2020/12/27 02:19:06;;;;;;;;;;;6.10;78.20;;;;;;4754244;30;19925;-83
2020/12/27 02:21:32;;;;;;;;;;;6.10;78.20;;;;;;4770625;30;19914;-83
2020/12/27 02:23:58;;;;;;;;;;;6.10;78.30;;;;;;4754090;30;19932;-83
2020/12/27 02:26:24;;;;;;;;;;;6.10;78.20;;;;;;4739622;30;19925;-83
2020/12/27 02:28:49;;;;;;;;;;;6.10;78.20;;;;;;4770106;30;19918;-83
2020/12/27 02:31:15;;;;;;;;;;;6.20;78.30;;;;;;4754329;30;19975;-83
2020/12/27 02:33:40;;;;;;;;;;;6.20;78.20;;;;;;4754316;30;19926;-83
2020/12/27 02:36:06;;;;;;;;;;;6.10;78.00;;;;;;4769906;30;19922;-83
2020/12/27 02:38:32;;;;;;;;;;;6.10;78.00;;;;;;4770066;30;19999;-83
2020/12/27 02:40:57;;;;;;;;;;;6.10;78.00;;;;;;4769856;30;19918;-83
2020/12/27 02:43:23;;;;;;;;;;;6.10;78.00;;;;;;4739480;30;19997;-83
2020/12/27 02:45:48;;;;;;;;;;;6.20;78.10;;;;;;4753841;30;19917;-82
2020/12/27 02:48:14;;;;;;;;;;;6.10;78.00;;;;;;4753841;30;19922;-83
2020/12/27 02:50:39;;;;;;;;;;;6.10;77.80;;;;;;4753997;30;20381;-83
2020/12/27 02:53:05;;;;;;;;;;;6.10;77.90;;;;;;4753646;30;19930;-83
2020/12/27 02:55:31;;;;;;;;;;;6.10;77.80;;;;;;4769841;30;19929;-83
2020/12/27 02:57:57;;;;;;;;;;;6.10;77.90;;;;;;4753519;30;19922;-83
2020/12/27 03:00:22;;;;;;;;;;;6.10;77.80;;;;;;4753770;30;19924;-83
2020/12/27 03:02:48;;;;;;;;;;;6.10;78.00;;;;;;4769927;30;20259;-83
2020/12/27 03:05:13;;;;;;;;;;;6.10;78.00;;;;;;4753533;30;20007;-83
2020/12/27 03:07:39;;;;;;;;;;;6.10;77.80;;;;;;4739076;30;19918;-83
2020/12/27 03:10:05;;;;;;;;;;;6.10;77.80;;;;;;4753115;30;19922;-83
2020/12/27 03:12:30;;;;;;;;;;;6.10;77.70;;;;;;4769790;30;19925;-83
2020/12/27 03:14:56;;;;;;;;;;;6.10;77.90;;;;;;4752992;30;19917;-83
2020/12/27 03:17:21;;;;;;;;;;;6.10;77.90;;;;;;4753844;30;19926;-83
2020/12/27 03:19:47;;;;;;;;;;;6.10;77.90;;;;;;4753528;30;20016;-83
2020/12/27 03:22:12;;;;;;;;;;;6.10;77.90;;;;;;4753061;30;19917;-83
2020/12/27 03:24:38;;;;;;;;;;;6.10;77.90;;;;;;4769874;30;20016;-83
2020/12/27 03:27:03;;;;;;;;;;;6.10;78.00;;;;;;4769197;30;19922;-83
2020/12/27 03:29:29;;;;;;;;;;;6.10;77.90;;;;;;4738653;30;19932;-83
2020/12/27 03:31:54;;;;;;;;;;;6.10;77.90;;;;;;4769048;30;19971;-83
2020/12/27 03:34:20;;;;;;;;;;;6.20;77.80;;;;;;4738759;30;19925;-83
2020/12/27 03:36:48;;;;;;;;;;;6.20;77.80;;;;;;4738778;30;20012;-83
2020/12/27 03:39:14;;;;;;;;;;;6.20;77.50;;;;;;4752816;30;19928;-83
2020/12/27 03:41:40;;;;;;;;;;;6.20;78.20;;;;;;4769261;30;19914;-83
2020/12/27 03:44:05;;;;;;;;;;;6.20;77.80;;;;;;4752851;30;19918;-83
2020/12/27 03:46:31;;;;;;;;;;;6.20;77.80;;;;;;4753150;30;19965;-83
2020/12/27 03:48:56;;;;;;;;;;;6.30;77.80;;;;;;4768780;30;19961;-83
2020/12/27 03:51:22;;;;;;;;;;;6.30;77.70;;;;;;4753196;30;20395;-83
2020/12/27 03:53:47;;;;;;;;;;;6.30;77.80;;;;;;4745189;24;19934;-83
2020/12/27 03:56:13;;;;;;;;;;;6.30;77.80;;;;;;4752705;30;19922;-83
2020/12/27 03:58:39;;;;;;;;;;;6.30;77.80;;;;;;4758551;30;20287;-83
2020/12/27 04:01:04;;;;;;;;;;;6.30;77.80;;;;;;4770521;30;20265;-83
2020/12/27 04:03:30;;;;;;;;;;;6.30;77.80;;;;;;4786895;30;20063;-83
2020/12/27 04:05:55;;;;;;;;;;;6.30;77.80;;;;;;4770409;30;19925;-83
2020/12/27 04:08:21;;;;;;;;;;;6.30;77.90;;;;;;4770291;30;20014;-83
2020/12/27 04:10:46;;;;;;;;;;;6.30;78.00;;;;;;4769117;30;20388;-83
2020/12/27 04:13:12;;;;;;;;;;;6.20;77.90;;;;;;4768557;30;20355;-83
2020/12/27 04:15:37;;;;;;;;;;;6.30;78.00;;;;;;4752851;30;19968;-83
2020/12/27 04:18:03;;;;;;;;;;;6.30;78.00;;;;;;4737770;30;20419;-83
2020/12/27 04:20:29;;;;;;;;;;;6.30;78.00;;;;;;4752873;30;20400;-82
2020/12/27 04:22:54;;;;;;;;;;;6.30;78.00;;;;;;4737767;30;19925;-83
2020/12/27 04:25:20;;;;;;;;;;;6.30;78.00;;;;;;4770053;30;19928;-83
2020/12/27 04:27:45;;;;;;;;;;;6.30;78.00;;;;;;4756525;30;19914;-82
2020/12/27 04:30:11;;;;;;;;;;;6.30;77.90;;;;;;4756013;30;19913;-83
2020/12/27 04:32:37;;;;;;;;;;;6.30;78.00;;;;;;4757973;30;20009;-83
2020/12/27 04:35:04;;;;;;;;;;;6.30;77.90;;;;;;4773862;30;19928;-83
2020/12/27 04:37:29;;;;;;;;;;;6.30;78.00;;;;;;4773940;30;20325;-83
2020/12/27 04:39:55;;;;;;;;;;;6.30;77.90;;;;;;4773392;30;19971;-83
2020/12/27 04:42:21;;;;;;;;;;;6.40;77.90;;;;;;4773924;30;20338;-83
2020/12/27 04:44:47;;;;;;;;;;;6.30;77.90;;;;;;4790183;30;20430;-83
2020/12/27 04:47:14;;;;;;;;;;;6.30;78.00;;;;;;4773314;30;20261;-83
2020/12/27 04:49:40;;;;;;;;;;;6.30;78.10;;;;;;4773830;30;19945;-83
2020/12/27 04:52:06;;;;;;;;;;;6.40;78.20;;;;;;4789690;30;19921;-83
2020/12/27 04:54:33;;;;;;;;;;;6.40;78.10;;;;;;4789804;30;19922;-83
2020/12/27 04:56:58;;;;;;;;;;;6.40;78.10;;;;;;4787444;30;19977;-83
2020/12/27 04:59:24;;;;;;;;;;;6.40;78.00;;;;;;4773715;30;19956;-83
2020/12/27 05:01:50;;;;;;;;;;;6.40;78.00;;;;;;4773676;30;20004;-83
2020/12/27 05:04:21;;;;;;;;;;;6.40;77.90;;;;;;4789484;30;19914;-83
2020/12/27 05:06:47;;;;;;;;;;;6.40;78.00;;;;;;4773655;30;20441;-83
2020/12/27 05:09:12;;;;;;;;;;;6.50;78.10;;;;;;4766478;30;19915;-83
2020/12/27 05:11:38;;;;;;;;;;;6.50;78.10;;;;;;4755694;30;19930;-83
2020/12/27 05:14:04;;;;;;;;;;;6.50;78.10;;;;;;4740626;30;19926;-83
2020/12/27 05:16:30;;;;;;;;;;;6.50;78.10;;;;;;4771627;30;20292;-83
2020/12/27 05:18:57;;;;;;;;;;;6.50;78.00;;;;;;4771362;30;19914;-83
2020/12/27 05:21:23;;;;;;;;;;;6.50;78.00;;;;;;4771567;30;19914;-83
2020/12/27 05:23:52;;;;;;;;;;;6.50;78.00;;;;;;4770952;30;20262;-83
2020/12/27 05:26:18;;;;;;;;;;;6.50;78.00;;;;;;4755172;30;19958;-83
2020/12/27 05:28:44;;;;;;;;;;;6.60;78.10;;;;;;4755595;30;19917;-83
2020/12/27 05:31:10;;;;;;;;;;;6.60;77.90;;;;;;4771062;30;19918;-83
2020/12/27 05:33:36;;;;;;;;;;;6.60;77.90;;;;;;4771436;30;19937;-83
2020/12/27 05:36:02;;;;;;;;;;;6.60;78.00;;;;;;4754903;30;20377;-83
2020/12/27 05:38:28;;;;;;;;;;;6.60;77.90;;;;;;4756050;30;19918;-83
2020/12/27 05:40:54;;;;;;;;;;;6.60;77.80;;;;;;4789173;30;19917;-83
2020/12/27 05:43:20;;;;;;;;;;;6.60;77.80;;;;;;4772745;30;19948;-83
2020/12/27 05:45:45;;;;;;;;;;;6.60;77.80;;;;;;4762247;30;19926;-83
2020/12/27 05:48:11;;;;;;;;;;;6.60;77.80;;;;;;4754827;30;19918;-83
2020/12/27 05:50:38;;;;;;;;;;;6.70;77.80;;;;;;4768625;30;19921;-83
2020/12/27 05:53:09;;;;;;;;;;;6.70;77.80;;;;;;4772191;30;19913;-83
2020/12/27 05:55:37;;;;;;;;;;;6.70;77.80;;;;;;4772661;30;19918;-83
2020/12/27 05:58:04;;;;;;;;;;;6.70;77.80;;;;;;4772239;30;19921;-83
2020/12/27 06:00:30;;;;;;;;;;;6.70;77.60;;;;;;4788901;30;19914;-83
2020/12/27 06:02:57;;;;;;;;;;;6.70;77.70;;;;;;4788775;30;20386;-83
2020/12/27 06:05:44;;;;;;;;;;;6.70;77.60;;;;;;4788800;30;20370;-83
2020/12/27 06:08:28;;;;;;;;;;;6.80;77.70;;;;;;4772210;30;20385;-83
2020/12/27 06:11:03;;;;;;;;;;;6.80;77.70;;;;;;4755628;30;19918;-83
2020/12/27 06:13:28;;;;;;;;;;;6.80;77.70;;;;;;4770699;30;19918;-83
2020/12/27 06:15:58;;;;;;;;;;;6.80;77.60;;;;;;4754532;30;19918;-83
2020/12/27 06:18:29;;;;;;;;;;;6.80;77.60;;;;;;4770619;30;19913;-83
2020/12/27 06:21:08;;;;;;;;;;;6.80;77.60;;;;;;4754509;30;19917;-83
2020/12/27 06:23:34;;;;;;;;;;;6.80;77.60;;;;;;4754574;30;19926;-84
2020/12/27 06:26:00;;;;;;;;;;;6.80;77.70;;;;;;4770066;30;19917;-83
2020/12/27 06:28:27;;;;;;;;;;;6.80;77.70;;;;;;4770824;30;19913;-83
2020/12/27 06:30:54;;;;;;;;;;;6.90;77.80;;;;;;4770436;30;19914;-83
2020/12/27 06:33:21;;;;;;;;;;;6.90;77.70;;;;;;4770087;30;19917;-83
2020/12/27 06:35:47;;;;;;;;;;;6.90;77.70;;;;;;4754264;30;20370;-83
2020/12/27 06:38:20;;;;;;;;;;;6.90;77.60;;;;;;4769965;30;20005;-83
2020/12/27 06:40:46;;;;;;;;;;;6.90;77.60;;;;;;4785341;30;19939;-83
2020/12/27 06:43:24;;;;;;;;;;;6.90;77.50;;;;;;4771972;30;19961;-87
2020/12/27 06:45:50;;;;;;;;;;;7.00;77.50;;;;;;4769281;30;19914;-87
2020/12/27 06:48:33;;;;;;;;;;;7.00;77.20;;;;;;4753722;30;19922;-84
2020/12/27 06:50:58;;;;;;;;;;;7.00;77.30;;;;;;4753945;30;19929;-85
2020/12/27 06:53:47;;;;;;;;;;;7.00;77.20;;;;;;4751102;30;19930;-86
2020/12/27 06:56:13;;;;;;;;;;;7.00;77.30;;;;;;4747007;30;19988;-84
2020/12/27 06:58:39;;;;;;;;;;;7.00;77.00;;;;;;4751229;30;19980;-83
2020/12/27 07:01:09;;;;;;;;;;;7.00;77.00;;;;;;4750363;30;20416;-83
2020/12/27 07:03:35;;;;;;;;;;;7.00;77.00;;;;;;4750659;30;19915;-83
2020/12/27 07:06:15;;;;;;;;;;;7.00;77.00;;;;;;4751842;30;19914;-83
2020/12/27 07:08:41;;;;;;;;;;;7.00;76.80;;;;;;4750841;30;19918;-83
2020/12/27 07:11:06;;;;;;;;;;;7.00;77.00;;;;;;4735740;30;19919;-83
2020/12/27 07:13:40;;;;;;;;;;;7.10;77.00;;;;;;4750927;30;19925;-84
2020/12/27 07:16:08;;;;;;;;;;;7.00;76.70;;;;;;4751596;30;19918;-84
2020/12/27 07:18:35;;;;;;;;;;;7.10;76.70;;;;;;4765576;30;19918;-84
2020/12/27 07:21:02;;;;;;;;;;;7.10;76.70;;;;;;4768212;30;19920;-84
2020/12/27 07:23:31;;;;;;;;;;;7.10;76.60;;;;;;4768339;30;20420;-84
2020/12/27 07:25:58;;;;;;;;;;;7.10;76.90;;;;;;4753495;30;19925;-84
2020/12/27 07:28:24;;;;;;;;;;;7.10;76.80;;;;;;4767317;30;20013;-84
2020/12/27 07:31:03;;;;;;;;;;;7.10;76.90;;;;;;4735903;30;20025;-84
2020/12/27 07:33:29;;;;;;;;;;;7.10;77.20;;;;;;4732773;30;20389;-84
2020/12/27 07:36:03;;;;;;;;;;;7.10;77.40;;;;;;4766943;30;19914;-84
2020/12/27 07:38:46;;;;;;;;;;;7.10;77.60;;;;;;4768183;30;19925;-84
2020/12/27 07:41:11;;;;;;;;;;;7.10;78.00;;;;;;4766267;30;20512;-84
2020/12/27 07:43:38;;;;;;;;;;;7.10;78.80;;;;;;4768098;30;19926;-85
2020/12/27 07:46:07;;;;;;;;;;;7.10;78.40;;;;;;4767854;30;20346;-85
2020/12/27 07:48:33;;;;;;;;;;;7.10;78.60;;;;;;4769613;30;19914;-86
2020/12/27 07:51:11;;;;;;;;;;;7.10;78.90;;;;;;4767942;30;19914;-84
2020/12/27 07:53:37;;;;;;;;;;;7.10;79.20;;;;;;4774479;30;20452;-85
2020/12/27 07:56:02;;;;;;;;;;;7.00;79.20;;;;;;4751639;30;20040;-85
2020/12/27 07:58:28;;;;;;;;;;;7.00;79.60;;;;;;4753670;30;19987;-85
2020/12/27 08:00:53;;;;;;;;;;;7.00;79.80;;;;;;4753613;30;20000;-85
2020/12/27 08:03:19;;;;;;;;;;;7.00;80.00;;;;;;4739067;30;20365;-85
2020/12/27 08:05:44;;;;;;;;;;;6.90;80.00;;;;;;4756751;30;19918;-85
2020/12/27 08:08:10;;;;;;;;;;;6.90;80.10;;;;;;4765767;30;19926;-85
2020/12/27 08:10:36;;;;;;;;;;;7.00;80.30;;;;;;4769419;30;19924;-85
2020/12/27 08:13:02;;;;;;;;;;;6.90;80.30;;;;;;4738954;30;19929;-85
2020/12/27 08:15:29;;;;;;;;;;;7.00;80.50;;;;;;4752457;30;19918;-84
2020/12/27 08:17:59;;;;;;;;;;;7.00;80.60;;;;;;4769843;30;19922;-86
2020/12/27 08:20:24;;;;;;;;;;;6.90;80.80;;;;;;4753984;30;19917;-85
2020/12/27 08:22:57;;;;;;;;;;;7.00;80.80;;;;;;4753747;30;19914;-85
2020/12/27 08:25:23;;;;;;;;;;;7.00;81.80;;;;;;4733571;30;20227;-82
2020/12/27 08:27:52;;;;;;;;;;;6.90;81.10;;;;;;4752766;30;19930;-83
2020/12/27 08:30:18;;;;;;;;;;;6.90;81.30;;;;;;4771487;30;19924;-83
2020/12/27 08:32:44;;;;;;;;;;;6.90;81.30;;;;;;4764242;30;19922;-83
2020/12/27 08:35:21;;;;;;;;;;;6.90;81.50;;;;;;4755863;30;19925;-83
2020/12/27 08:37:47;;;;;;;;;;;6.90;81.50;;;;;;4768710;30;19926;-83
2020/12/27 08:40:14;;;;;;;;;;;6.90;81.40;;;;;;4766786;30;19954;-83
2020/12/27 08:42:43;;;;;;;;;;;6.90;81.50;;;;;;4768424;30;19952;-82
2020/12/27 08:45:15;;;;;;;;;;;6.90;81.70;;;;;;4752203;30;19926;-82
2020/12/27 08:47:56;;;;;;;;;;;6.90;81.60;;;;;;4741917;30;19925;-82
2020/12/27 08:50:23;;;;;;;;;;;6.90;81.60;;;;;;4767824;30;19940;-82
2020/12/27 08:52:49;;;;;;;;;;;6.90;81.60;;;;;;4767325;30;19953;-84
2020/12/27 08:55:15;;;;;;;;;;;6.90;81.40;;;;;;4766621;30;19961;-83
2020/12/27 08:57:43;;;;;;;;;;;6.90;81.60;;;;;;4766291;30;19973;-83
2020/12/27 09:00:10;;;;;;;;;;;6.90;81.80;;;;;;4767738;29;19918;-83
2020/12/27 09:02:36;;;;;;;;;;;6.80;81.90;;;;;;4766888;30;19914;-83
2020/12/27 09:05:06;;;;;;;;;;;6.90;81.90;;;;;;4755099;30;19914;-83
2020/12/27 09:07:32;;;;;;;;;;;6.90;82.00;;;;;;4782990;30;19924;-83
2020/12/27 09:10:02;;;;;;;;;;;6.80;82.00;;;;;;4770459;30;19965;-83
2020/12/27 09:12:28;;;;;;;;;;;6.90;82.30;;;;;;4770902;30;19917;-83
2020/12/27 09:14:53;;;;;;;;;;;6.80;82.10;;;;;;4773437;30;19918;-83
2020/12/27 09:17:19;;;;;;;;;;;6.80;82.10;;;;;;4789562;30;19928;-83
2020/12/27 09:19:45;;;;;;;;;;;6.80;82.20;;;;;;4773579;30;19946;-83
2020/12/27 09:22:11;;;;;;;;;;;6.90;82.20;;;;;;4772909;30;19960;-84
2020/12/27 09:24:37;;;;;;;;;;;6.80;82.30;;;;;;4773779;30;19961;-83
2020/12/27 09:27:09;;;;;;;;;;;6.80;82.50;;;;;;4773502;30;19922;-84
2020/12/27 09:29:35;;;;;;;;;;;6.80;82.30;;;;;;4773696;30;20001;-83
2020/12/27 09:32:11;;;;;;;;;;;6.80;82.50;;;;;;4773396;30;19921;-84
2020/12/27 09:34:37;;;;;;;;;;;6.80;82.50;;;;;;4758593;30;20325;-84
2020/12/27 09:37:13;;;;;;;;;;;6.80;82.50;;;;;;4773088;30;19928;-83
2020/12/27 09:39:38;;;;;;;;;;;6.80;82.30;;;;;;4789447;30;19918;-84
2020/12/27 09:42:04;;;;;;;;;;;6.80;82.50;;;;;;4789332;30;19922;-83
2020/12/27 09:44:30;;;;;;;;;;;6.80;82.60;;;;;;4789073;30;19918;-83
2020/12/27 09:46:57;;;;;;;;;;;6.80;82.40;;;;;;4789340;30;20012;-84
2020/12/27 09:49:23;;;;;;;;;;;6.80;82.50;;;;;;4773227;30;19996;-84
2020/12/27 09:52:07;;;;;;;;;;;6.80;82.50;;;;;;4772968;30;20055;-85
2020/12/27 09:54:36;;;;;;;;;;;6.80;82.50;;;;;;4776765;24;20072;-83
2020/12/27 09:57:11;;;;;;;;;;;6.80;82.60;;;;;;4769888;30;19918;-84
2020/12/27 09:59:37;;;;;;;;;;;6.80;82.50;;;;;;4771286;30;20288;-83
2020/12/27 10:02:02;;;;;;;;;;;6.80;82.50;;;;;;4755067;30;19922;-84
2020/12/27 10:04:28;;;;;;;;;;;6.80;82.50;;;;;;4759284;30;19934;-86
2020/12/27 10:06:53;;;;;;;;;;;6.80;82.40;;;;;;4762835;30;19919;-87
2020/12/27 10:09:19;;;;;;;;;;;6.90;82.60;;;;;;4753237;30;19926;-85
2020/12/27 10:11:44;;;;;;;;;;;6.90;82.70;;;;;;4769706;30;20311;-85
2020/12/27 10:14:10;;;;;;;;;;;6.90;82.60;;;;;;4769500;30;19971;-85
2020/12/27 10:16:35;;;;;;;;;;;6.90;82.60;;;;;;4762699;30;20013;-85
2020/12/27 10:19:01;;;;;;;;;;;6.80;82.60;;;;;;4764269;30;19918;-86
2020/12/27 10:21:26;;;;;;;;;;;6.90;82.50;;;;;;4745900;30;19922;-86
2020/12/27 10:23:52;;;;;;;;;;;6.90;82.50;;;;;;4760254;30;20322;-87
2020/12/27 10:26:17;;;;;;;;;;;6.90;82.60;;;;;;4761284;30;19986;-86
2020/12/27 10:28:43;;;;;;;;;;;6.90;82.60;;;;;;4742083;30;20013;-86
2020/12/27 10:31:09;;;;;;;;;;;6.90;82.80;;;;;;4736982;30;20365;-86
2020/12/27 10:33:34;;;;;;;;;;;6.90;82.80;;;;;;4751970;30;20013;-85
2020/12/27 10:36:00;;;;;;;;;;;6.90;82.90;;;;;;4751882;30;20384;-86
2020/12/27 10:38:25;;;;;;;;;;;6.90;83.00;;;;;;4736787;30;19922;-86
2020/12/27 10:40:51;;;;;;;;;;;6.90;82.90;;;;;;4751921;30;19969;-87
2020/12/27 10:43:17;;;;;;;;;;;6.90;83.10;;;;;;4736786;30;19922;-87
2020/12/27 10:45:43;;;;;;;;;;;6.90;83.10;;;;;;4737161;30;20354;-86
2020/12/27 10:48:08;;;;;;;;;;;6.90;83.20;;;;;;4751842;30;19975;-88
2020/12/27 10:50:40;;;;;;;;;;;6.90;83.40;;;;;;4752017;30;19925;-89
2020/12/27 10:53:06;;;;;;;;;;;6.90;83.30;;;;;;4758328;30;19957;-86
2020/12/27 10:55:31;;;;;;;;;;;6.90;83.30;;;;;;4758561;30;19921;-87
2020/12/27 10:57:57;;;;;;;;;;;6.90;83.10;;;;;;4757873;30;19948;-87
2020/12/27 11:00:23;;;;;;;;;;;7.00;83.10;;;;;;4759858;30;20011;-88
2020/12/27 11:02:48;;;;;;;;;;;6.90;83.10;;;;;;4761495;30;19918;-87
2020/12/27 11:05:15;;;;;;;;;;;6.90;83.30;;;;;;4762573;30;19914;-87
2020/12/27 11:07:41;;;;;;;;;;;6.90;83.40;;;;;;4739632;30;19925;-85
2020/12/27 11:10:06;;;;;;;;;;;6.90;83.60;;;;;;4770313;30;19921;-87
2020/12/27 11:12:32;;;;;;;;;;;6.90;83.50;;;;;;4769649;30;19914;-86
2020/12/27 11:14:59;;;;;;;;;;;6.90;83.60;;;;;;4745842;30;20359;-87
2020/12/27 11:17:26;;;;;;;;;;;6.90;83.90;;;;;;4771548;30;19922;-86
2020/12/27 11:19:51;;;;;;;;;;;6.90;83.90;;;;;;4750538;30;19922;-86
2020/12/27 11:22:17;;;;;;;;;;;6.90;83.80;;;;;;4738900;30;19956;-87
2020/12/27 11:24:42;;;;;;;;;;;6.90;83.80;;;;;;4754332;30;19930;-87
2020/12/27 11:27:08;;;;;;;;;;;7.00;83.80;;;;;;4739258;30;20281;-87
2020/12/27 11:29:33;;;;;;;;;;;7.00;83.70;;;;;;4769748;30;19921;-87
2020/12/27 11:31:59;;;;;;;;;;;7.00;83.80;;;;;;4739370;30;20258;-87
2020/12/27 11:34:27;;;;;;;;;;;7.00;83.70;;;;;;4769500;30;19918;-86
2020/12/27 11:36:53;;;;;;;;;;;6.90;83.70;;;;;;4750248;30;19979;-87
2020/12/27 11:39:18;;;;;;;;;;;6.90;83.90;;;;;;4738769;30;19960;-87
2020/12/27 11:41:47;;;;;;;;;;;7.00;83.90;;;;;;4753589;30;20426;-87
2020/12/27 11:44:13;;;;;;;;;;;7.00;84.00;;;;;;4753365;30;20296;-87
2020/12/27 11:46:39;;;;;;;;;;;7.00;83.80;;;;;;4738934;30;19918;-87
2020/12/27 11:49:04;;;;;;;;;;;7.00;83.60;;;;;;4739180;30;19922;-86
2020/12/27 11:51:30;;;;;;;;;;;7.00;83.60;;;;;;4753618;30;19932;-87
2020/12/27 11:53:55;;;;;;;;;;;7.00;83.70;;;;;;4753261;30;19930;-87
2020/12/27 11:56:21;;;;;;;;;;;6.90;83.70;;;;;;4757336;30;20045;-87
2020/12/27 11:58:46;;;;;;;;;;;7.00;83.80;;;;;;4770682;30;19924;-86
2020/12/27 12:01:12;;;;;;;;;;;6.90;83.80;;;;;;4770904;30;20341;-86
2020/12/27 12:03:38;;;;;;;;;;;6.90;83.80;;;;;;4771239;30;19996;-86
2020/12/27 12:06:03;;;;;;;;;;;6.90;83.70;;;;;;4771145;30;20278;-87
2020/12/27 12:08:29;;;;;;;;;;;6.90;83.60;;;;;;4771191;30;20008;-86
2020/12/27 12:10:54;;;;;;;;;;;7.00;83.70;;;;;;4741431;30;19960;-86
2020/12/27 12:13:20;;;;;;;;;;;7.00;83.50;;;;;;4753782;30;19971;-86
2020/12/27 12:15:45;;;;;;;;;;;7.00;83.50;;;;;;4739063;30;19976;-86
2020/12/27 12:18:11;;;;;;;;;;;6.90;83.50;;;;;;4756200;30;20028;-85
2020/12/27 12:20:42;;;;;;;;;;;7.00;83.50;;;;;;4754054;30;19929;-85
2020/12/27 12:23:08;;;;;;;;;;;7.00;83.50;;;;;;4767662;30;20280;-85
2020/12/27 12:25:33;;;;;;;;;;;7.00;83.60;;;;;;4777271;30;19918;-85
2020/12/27 12:27:59;;;;;;;;;;;7.00;83.50;;;;;;4769907;30;19922;-86
2020/12/27 12:30:25;;;;;;;;;;;7.00;83.30;;;;;;4761947;30;20296;-86
2020/12/27 12:32:50;;;;;;;;;;;7.00;83.30;;;;;;4756443;30;19925;-85
2020/12/27 12:35:16;;;;;;;;;;;7.00;83.40;;;;;;4756589;30;19972;-85
2020/12/27 12:37:41;;;;;;;;;;;7.00;83.40;;;;;;4742292;30;19933;-86
2020/12/27 12:40:07;;;;;;;;;;;7.00;83.20;;;;;;4743812;30;19922;-87
2020/12/27 12:42:41;;;;;;;;;;;7.10;83.00;;;;;;4750031;30;19930;-86
2020/12/27 12:45:07;;;;;;;;;;;7.00;83.10;;;;;;4757889;30;19918;-86
2020/12/27 12:47:33;;;;;;;;;;;7.10;83.00;;;;;;4768906;30;19960;-87
2020/12/27 12:49:59;;;;;;;;;;;7.10;82.90;;;;;;4774079;30;19965;-88
2020/12/27 12:52:25;;;;;;;;;;;7.10;82.70;;;;;;4759673;30;20361;-87
2020/12/27 12:54:50;;;;;;;;;;;7.10;82.60;;;;;;4771311;30;19930;-88
2020/12/27 12:57:36;;;;;;;;;;;7.10;82.10;;;;;;4753364;30;19954;-87
2020/12/27 13:00:02;;;;;;;;;;;7.10;82.30;;;;;;4768547;30;19919;-87
2020/12/27 13:02:27;;;;;;;;;;;7.10;82.10;;;;;;4753535;30;19918;-87
2020/12/27 13:04:53;;;;;;;;;;;7.10;81.80;;;;;;4770995;30;19967;-88
2020/12/27 13:07:18;;;;;;;;;;;7.10;81.80;;;;;;4756230;30;19918;-88
2020/12/27 13:09:44;;;;;;;;;;;7.10;81.60;;;;;;4772525;30;19940;-88
2020/12/27 13:12:09;;;;;;;;;;;7.10;81.20;;;;;;4770084;30;19922;-87
2020/12/27 13:14:35;;;;;;;;;;;7.10;81.50;;;;;;4749306;30;19987;-88
2020/12/27 13:17:00;;;;;;;;;;;7.10;81.20;;;;;;4751632;30;19930;-89
2020/12/27 13:19:26;;;;;;;;;;;7.10;80.60;;;;;;4761125;30;20281;-88
2020/12/27 13:21:51;;;;;;;;;;;7.10;80.80;;;;;;4762684;30;19944;-89
2020/12/27 13:24:17;;;;;;;;;;;7.10;80.70;;;;;;4753387;30;19922;-88
2020/12/27 13:26:43;;;;;;;;;;;7.10;80.70;;;;;;4751671;30;20009;-89
2020/12/27 13:29:09;;;;;;;;;;;7.20;80.10;;;;;;4764026;30;20340;-88
2020/12/27 13:31:36;;;;;;;;;;;7.20;80.20;;;;;;4755845;30;20369;-88
2020/12/27 13:34:01;;;;;;;;;;;7.10;79.90;;;;;;4759581;30;19930;-88
2020/12/27 13:36:27;;;;;;;;;;;7.20;80.00;;;;;;4763376;30;19926;-87
2020/12/27 13:38:52;;;;;;;;;;;7.20;79.80;;;;;;4747553;30;19945;-87
2020/12/27 13:41:18;;;;;;;;;;;7.20;79.80;;;;;;4752561;30;19924;-87
2020/12/27 13:43:46;;;;;;;;;;;7.20;79.80;;;;;;4765338;30;19918;-87
2020/12/27 13:46:15;;;;;;;;;;;7.20;79.80;;;;;;4746507;30;19919;-87
2020/12/27 13:48:42;;;;;;;;;;;7.20;79.70;;;;;;4752849;30;19929;-87
2020/12/27 13:51:08;;;;;;;;;;;7.20;79.60;;;;;;4761294;30;19914;-87
2020/12/27 13:53:33;;;;;;;;;;;7.20;79.60;;;;;;4751049;30;19929;-88
2020/12/27 13:55:59;;;;;;;;;;;7.20;79.40;;;;;;4755825;30;19922;-87
2020/12/27 13:58:26;;;;;;;;;;;7.20;79.40;;;;;;4754988;30;20292;-87
2020/12/27 14:00:52;;;;;;;;;;;7.20;79.20;;;;;;4770660;30;19914;-87
2020/12/27 14:03:20;;;;;;;;;;;7.20;79.30;;;;;;4755008;30;19929;-88
2020/12/27 14:05:45;;;;;;;;;;;7.20;79.30;;;;;;4758273;30;19932;-88
2020/12/27 14:08:11;;;;;;;;;;;7.30;79.50;;;;;;4758285;30;20347;-89
2020/12/27 14:10:37;;;;;;;;;;;7.30;79.40;;;;;;4757939;30;19926;-89
2020/12/27 14:13:02;;;;;;;;;;;7.20;79.40;;;;;;4755655;30;19922;-88
2020/12/27 14:15:28;;;;;;;;;;;7.30;79.40;;;;;;4763286;30;20376;-88
2020/12/27 14:17:55;;;;;;;;;;;7.30;79.10;;;;;;4755014;30;19937;-87
2020/12/27 14:20:21;;;;;;;;;;;7.20;79.00;;;;;;4755258;30;19921;-88
2020/12/27 14:22:46;;;;;;;;;;;7.20;78.90;;;;;;4757242;30;19928;-88
2020/12/27 14:25:12;;;;;;;;;;;7.30;79.10;;;;;;4763114;30;19922;-87
2020/12/27 14:27:37;;;;;;;;;;;7.30;79.00;;;;;;4765376;30;19918;-87